Time;durP1;ratioP1;P1;durP2;ratioP2;P2;SDS_P1;SDS_P2;PMS_P1;PMS_P2;Temp;Humidity;BMP_temperature;BMP_pressure;BME280_temperature;BME280_humidity;BME280_pressure;Samples;Min_cycle;Max_cycle;Signal;HPM_P1;HPM_P2
2022/06/13 00:02:00;;;;;;;2.92;1.98;;;;;;;15.28;66.83;101819.91;4981699;28;20330;-69
2022/06/13 00:04:25;;;;;;;4.65;1.63;;;;;;;15.26;67.06;101813.22;5001656;28;20404;-69
2022/06/13 00:06:51;;;;;;;3.47;1.67;;;;;;;15.21;67.21;101807.63;5002141;28;20035;-69
2022/06/13 00:09:16;;;;;;;5.90;1.92;;;;;;;15.18;67.52;101807.00;5012837;28;20041;-69
2022/06/13 00:11:42;;;;;;;5.35;1.55;;;;;;;15.16;67.49;101810.72;4981776;28;20033;-69
2022/06/13 00:14:08;;;;;;;11.13;1.90;;;;;;;15.11;67.41;101798.16;4983902;28;21824;-68
2022/06/13 00:16:34;;;;;;;6.70;1.75;;;;;;;15.07;67.61;101799.47;5003487;28;20420;-69
2022/06/13 00:19:00;;;;;;;3.70;1.75;;;;;;;15.04;67.97;101802.38;4984812;28;20054;-69
2022/06/13 00:21:29;;;;;;;4.53;2.22;;;;;;;14.95;68.26;101804.16;4999804;28;20122;-69
2022/06/13 00:23:55;;;;;;;7.55;2.17;;;;;;;14.91;68.44;101794.22;4984636;28;20042;-69
2022/06/13 00:26:23;;;;;;;5.57;1.60;;;;;;;14.87;68.54;101800.72;4983339;28;20037;-69
2022/06/13 00:28:50;;;;;;;5.43;1.77;;;;;;;14.84;68.59;101795.81;4973087;28;20042;-69
2022/06/13 00:31:16;;;;;;;6.22;1.80;;;;;;;14.76;68.88;101802.66;4985378;28;20412;-69
2022/06/13 00:33:42;;;;;;;6.05;2.10;;;;;;;14.64;69.39;101796.09;5000278;28;20029;-69
2022/06/13 00:36:08;;;;;;;4.22;1.83;;;;;;;14.60;69.70;101798.22;5000173;28;20038;-69
2022/06/13 00:38:34;;;;;;;8.52;2.20;;;;;;;14.60;69.55;101797.41;5000015;28;20053;-69
2022/06/13 00:41:00;;;;;;;4.25;2.05;;;;;;;14.59;69.46;101788.72;4997851;28;20030;-69
2022/06/13 00:43:25;;;;;;;6.10;2.38;;;;;;;14.54;69.68;101791.00;4990519;28;20034;-69
2022/06/13 00:45:51;;;;;;;6.10;2.05;;;;;;;14.38;70.36;101783.09;4990304;28;20037;-68
2022/06/13 00:48:20;;;;;;;6.00;1.88;;;;;;;14.23;71.06;101777.66;4990001;28;20067;-69
2022/06/13 00:50:55;;;;;;;4.25;2.40;;;;;;;14.11;71.57;101777.09;5003087;28;20072;-69
2022/06/13 00:53:27;;;;;;;6.25;2.10;;;;;;;14.10;71.83;101778.06;5002640;28;20133;-69
2022/06/13 00:56:06;;;;;;;8.68;2.00;;;;;;;14.10;71.75;101782.47;4999972;28;20440;-69
2022/06/13 00:58:38;;;;;;;5.63;2.00;;;;;;;14.09;71.70;101786.88;4991540;28;20044;-69
2022/06/13 01:01:04;;;;;;;7.45;2.17;;;;;;;14.06;71.71;101786.38;5001864;28;20034;-69
2022/06/13 01:03:33;;;;;;;6.10;2.50;;;;;;;14.05;71.78;101780.31;5015482;28;20642;-69
2022/06/13 01:06:01;;;;;;;6.90;2.13;;;;;;;14.06;71.82;101765.50;4999549;28;20029;-68
2022/06/13 01:08:29;;;;;;;7.85;2.00;;;;;;;13.99;72.02;101773.97;5018085;28;20455;-69
2022/06/13 01:11:18;;;;;;;6.95;1.80;;;;;;;13.89;72.48;101772.41;5001970;28;20033;-69
2022/06/13 01:13:58;;;;;;;9.43;2.08;;;;;;;13.75;73.13;101772.03;4987741;28;20524;-68
2022/06/13 01:16:37;;;;;;;5.47;2.20;;;;;;;13.73;73.31;101776.56;4999920;28;20045;-69
2022/06/13 01:19:40;;;;;;;8.20;2.42;;;;;;;13.75;73.10;101779.84;4986383;28;20038;-69
2022/06/13 01:22:33;;;;;;;8.70;2.75;;;;;;;13.77;73.23;101777.09;4987904;28;20038;-69
2022/06/13 01:25:14;;;;;;;7.35;2.20;;;;;;;13.73;73.67;101781.78;5013564;28;20033;-68
2022/06/13 01:28:19;;;;;;;8.43;2.53;;;;;;;13.69;73.98;101779.63;4986259;28;20230;-69
2022/06/13 01:30:56;;;;;;;5.60;2.72;;;;;;;13.67;74.39;101786.78;4988468;28;20041;-69
2022/06/13 01:33:41;;;;;;;11.45;2.35;;;;;;;13.62;74.74;101789.84;5007512;28;20072;-69
2022/06/13 01:36:18;;;;;;;8.07;2.58;;;;;;;13.57;75.18;101786.88;5002491;28;20030;-68
2022/06/13 01:38:56;;;;;;;7.47;2.28;;;;;;;13.55;75.18;101787.00;5002494;28;20038;-69
2022/06/13 01:41:35;;;;;;;7.32;2.83;;;;;;;13.56;75.43;101790.44;4984762;28;20042;-69
2022/06/13 01:44:33;;;;;;;9.88;2.65;;;;;;;13.56;75.50;101791.28;5001715;28;20104;-69
2022/06/13 01:47:28;;;;;;;11.70;3.90;;;;;;;13.59;75.58;101795.34;4970866;28;20038;-69
2022/06/13 01:50:19;;;;;;;9.00;3.22;;;;;;;13.59;75.68;101790.94;4997529;28;20040;-68
2022/06/13 01:52:50;;;;;;;6.30;2.92;;;;;;;13.61;75.50;101781.19;5002006;28;20408;-68
2022/06/13 01:55:37;;;;;;;9.13;3.53;;;;;;;13.64;75.47;101780.09;4983597;28;20038;-68
2022/06/13 01:58:11;;;;;;;11.48;3.90;;;;;;;13.65;75.34;101783.50;4968757;28;20164;-69
2022/06/13 02:00:39;;;;;;;11.80;3.53;;;;;;;13.67;75.14;101795.41;5014919;28;20049;-69
2022/06/13 02:03:17;;;;;;;9.05;3.80;;;;;;;13.71;75.02;101793.31;4972086;28;20111;-69
2022/06/13 02:05:55;;;;;;;9.30;4.53;;;;;;;13.71;75.17;101785.50;5015410;28;20051;-68
2022/06/13 02:08:28;;;;;;;7.45;3.13;;;;;;;13.67;75.37;101786.78;4991948;28;20056;-69
2022/06/13 02:11:13;;;;;;;11.88;3.42;;;;;;;13.66;75.26;101791.16;5002670;28;20480;-69
2022/06/13 02:13:51;;;;;;;10.88;3.40;;;;;;;13.66;75.22;101785.97;5004959;28;20034;-69
2022/06/13 02:16:25;;;;;;;15.93;4.43;;;;;;;13.65;75.51;101773.88;4986070;28;20041;-68
2022/06/13 02:19:07;;;;;;;10.35;3.25;;;;;;;13.61;75.69;101781.19;4970736;28;20026;-69
2022/06/13 02:21:42;;;;;;;13.70;3.47;;;;;;;13.62;75.53;101795.06;5014275;28;20045;-69
2022/06/13 02:24:13;;;;;;;11.00;3.70;;;;;;;13.63;75.48;101784.47;4987088;28;20496;-68
2022/06/13 02:26:42;;;;;;;14.13;4.20;;;;;;;13.64;75.77;101787.91;5004500;28;20033;-69
2022/06/13 02:29:14;;;;;;;8.50;3.22;;;;;;;13.64;75.78;101780.09;5003377;28;20741;-68
2022/06/13 02:31:52;;;;;;;11.68;3.58;;;;;;;13.65;75.57;101773.88;4984120;28;20038;-69
2022/06/13 02:34:26;;;;;;;11.07;3.70;;;;;;;13.64;75.43;101777.47;5002651;28;20099;-69
2022/06/13 02:37:17;;;;;;;8.20;2.92;;;;;;;13.57;76.12;101773.84;4985725;28;20037;-69
2022/06/13 02:40:10;;;;;;;8.68;3.75;;;;;;;13.49;76.78;101779.81;4990069;28;20423;-69
2022/06/13 02:42:40;;;;;;;14.75;3.50;;;;;;;13.39;77.44;101779.91;5004730;28;20021;-69
2022/06/13 02:45:13;;;;;;;10.52;3.13;;;;;;;13.27;77.72;101770.63;4998469;28;20070;-69
2022/06/13 02:47:55;;;;;;;10.75;3.72;;;;;;;13.20;78.02;101770.44;4988831;28;20037;-69
2022/06/13 02:50:28;;;;;;;12.40;3.70;;;;;;;13.11;78.55;101776.53;5012885;28;20088;-69
2022/06/13 02:53:08;;;;;;;7.82;3.25;;;;;;;13.01;79.19;101776.59;5001263;28;20015;-69
2022/06/13 02:55:41;;;;;;;6.38;3.63;;;;;;;12.96;79.37;101768.41;4986373;28;20040;-69
2022/06/13 02:58:36;;;;;;;10.13;3.45;;;;;;;12.96;79.61;101762.38;4988469;28;20113;-68
2022/06/13 03:01:16;;;;;;;7.70;3.97;;;;;;;12.96;79.80;101763.22;4979077;28;20057;-69
2022/06/13 03:04:06;;;;;;;9.90;3.47;;;;;;;13.03;79.16;101755.63;4984391;28;20034;-69
2022/06/13 03:06:35;;;;;;;12.07;3.53;;;;;;;13.09;79.10;101759.41;5001904;28;20152;-69
2022/06/13 03:09:15;;;;;;;7.38;3.13;;;;;;;13.11;79.31;101754.88;5000576;28;20052;-68
2022/06/13 03:12:05;;;;;;;8.43;3.95;;;;;;;13.15;79.29;101753.63;5005013;28;20030;-69
2022/06/13 03:14:51;;;;;;;10.38;3.17;;;;;;;13.15;79.35;101764.03;4986821;28;20125;-69
2022/06/13 03:17:26;;;;;;;9.65;3.88;;;;;;;13.20;79.08;101757.41;4997994;28;20042;-68
2022/06/13 03:20:04;;;;;;;9.57;3.50;;;;;;;13.25;78.82;101762.16;4981108;28;20053;-68
2022/06/13 03:22:29;;;;;;;9.70;3.45;;;;;;;13.29;78.58;101757.47;5018646;28;20057;-69
2022/06/13 03:25:07;;;;;;;10.73;3.00;;;;;;;13.33;78.38;101754.44;5003750;28;20203;-69
2022/06/13 03:27:46;;;;;;;8.52;3.00;;;;;;;13.34;78.83;101757.88;5014382;28;20041;-69
2022/06/13 03:30:16;;;;;;;7.30;3.55;;;;;;;13.35;79.23;101754.28;4997064;28;20034;-69
2022/06/13 03:33:40;;;;;;;10.25;3.63;;;;;;;13.36;79.15;101746.34;5001998;28;20913;-69
2022/06/13 03:35:37;;;;;;;9.70;4.10;;;;;;;13.39;78.88;101753.00;4988147;28;20038;-69
2022/06/13 03:38:07;;;;;;;7.95;2.97;;;;;;;13.40;78.64;101749.44;5010753;28;20088;-68
2022/06/13 03:40:37;;;;;;;9.93;3.85;;;;;;;13.40;78.56;101752.06;5003352;28;20046;-69
2022/06/13 03:43:10;;;;;;;10.18;4.28;;;;;;;13.39;78.37;101748.66;4985193;28;20065;-68
2022/06/13 03:45:38;;;;;;;;;;;;;;;13.41;78.45;101748.47;4986196;28;20481;-69
2022/06/13 03:48:12;;;;;;;16.83;4.40;;;;;;;13.41;78.18;101759.72;5002572;28;19913;-68
2022/06/13 03:50:46;;;;;;;18.20;5.25;;;;;;;13.41;78.27;101761.50;4988837;28;20042;-68
2022/06/13 03:53:18;;;;;;;16.73;4.00;;;;;;;13.41;78.35;101762.34;5012392;28;20412;-69
2022/06/13 03:55:50;;;;;;;11.02;4.22;;;;;;;13.42;78.15;101757.94;4999037;28;20124;-69
2022/06/13 03:58:23;;;;;;;15.32;4.20;;;;;;;13.40;78.29;101768.50;4983413;28;20061;-69
2022/06/13 04:01:07;;;;;;;17.58;4.38;;;;;;;13.39;78.18;101766.88;5001913;28;20638;-69
2022/06/13 04:03:33;;;;;;;19.75;4.45;;;;;;;13.40;78.14;101770.28;5013503;28;20108;-69
2022/06/13 04:06:05;;;;;;;16.65;5.70;;;;;;;13.42;77.88;101769.16;5002188;28;20044;-69
2022/06/13 04:08:35;;;;;;;13.63;4.43;;;;;;;13.41;77.99;101767.53;4987536;28;20046;-69
2022/06/13 04:11:28;;;;;;;15.32;4.45;;;;;;;13.38;78.43;101782.66;5013223;28;20270;-69
2022/06/13 04:14:08;;;;;;;19.80;5.13;;;;;;;13.38;78.58;101786.06;4999986;28;20030;-69
2022/06/13 04:17:00;;;;;;;14.10;3.63;;;;;;;13.40;78.77;101786.72;5012682;28;20526;-69
2022/06/13 04:19:50;;;;;;;14.07;4.13;;;;;;;13.40;79.61;101804.16;4991783;28;20049;-69
2022/06/13 04:22:22;;;;;;;9.43;4.32;;;;;;;13.25;79.70;101817.66;4994877;28;20084;-69
2022/06/13 04:25:02;;;;;;;13.20;4.57;;;;;;;13.14;80.41;101827.50;5001811;28;20088;-69
2022/06/13 04:27:51;;;;;;;14.30;4.75;;;;;;;13.23;81.42;101808.38;4995992;28;20096;-71
2022/06/13 04:30:21;;;;;;;13.55;4.57;;;;;;;13.17;83.00;101796.78;4983680;28;20420;-73
2022/06/13 04:33:14;;;;;;;13.50;4.05;;;;;;;13.15;84.31;101788.28;4986266;28;20029;-73
2022/06/13 04:35:41;;;;;;;16.73;5.18;;;;;;;13.19;85.56;101792.22;4983383;28;20113;-72
2022/06/13 04:38:10;;;;;;;12.75;5.47;;;;;;;13.20;86.28;101793.03;4968613;28;20432;-72
2022/06/13 04:40:44;;;;;;;8.80;3.95;;;;;;;13.21;86.82;101800.69;4999231;28;20053;-72
2022/06/13 04:43:12;;;;;;;11.52;5.78;;;;;;;13.17;88.28;101788.97;4979082;28;20040;-72
2022/06/13 04:45:47;;;;;;;14.75;4.97;;;;;;;13.22;88.43;101788.50;4998115;28;20034;-72
2022/06/13 04:48:14;;;;;;;12.55;4.72;;;;;;;13.24;88.53;101784.78;5002722;28;20128;-72
2022/06/13 04:50:48;;;;;;;10.55;4.47;;;;;;;13.28;88.32;101793.13;4998009;28;20038;-72
2022/06/13 04:53:29;;;;;;;10.82;4.20;;;;;;;13.33;87.98;101792.69;4998658;28;20058;-72
2022/06/13 04:55:55;;;;;;;12.70;4.43;;;;;;;13.37;88.42;101797.47;5003613;28;20551;-72
2022/06/13 04:58:36;;;;;;;8.88;4.07;;;;;;;13.44;88.39;101800.28;5015765;28;20066;-72
2022/06/13 05:01:23;;;;;;;6.82;4.03;;;;;;;13.51;88.02;101809.13;5012125;28;20034;-71
2022/06/13 05:03:50;;;;;;;11.15;4.78;;;;;;;13.55;87.89;101807.06;5015587;28;20042;-71
2022/06/13 05:06:23;;;;;;;11.55;4.20;;;;;;;13.56;88.29;101819.94;4983850;28;20038;-72
2022/06/13 05:08:55;;;;;;;11.98;4.75;;;;;;;13.56;88.79;101819.94;4999257;28;20030;-72
2022/06/13 05:11:28;;;;;;;17.83;5.30;;;;;;;13.58;89.28;101830.19;4982921;28;20033;-73
2022/06/13 05:14:16;;;;;;;11.27;4.97;;;;;;;13.65;89.33;101826.00;4998785;28;20042;-72
2022/06/13 05:16:53;;;;;;;16.13;5.63;;;;;;;13.70;89.82;101836.00;4996935;28;20052;-73
2022/06/13 05:19:39;;;;;;;18.30;5.10;;;;;;;13.74;90.34;101832.13;4999774;28;20057;-72
2022/06/13 05:22:29;;;;;;;17.65;4.70;;;;;;;13.76;90.00;101836.19;4998009;28;20037;-72
2022/06/13 05:25:08;;;;;;;13.40;4.65;;;;;;;13.89;89.48;101827.16;4983410;28;20085;-72
2022/06/13 05:27:33;;;;;;;15.20;4.80;;;;;;;14.10;88.60;101827.63;4998926;28;20049;-72
2022/06/13 05:29:59;;;;;;;12.07;4.88;;;;;;;14.15;88.38;101829.78;5003800;28;20037;-72
2022/06/13 05:32:25;;;;;;;16.35;5.43;;;;;;;14.13;88.57;101827.31;5015437;28;20045;-72
2022/06/13 05:34:52;;;;;;;22.00;5.47;;;;;;;14.09;88.80;101833.81;4987627;28;20029;-72
2022/06/13 05:37:18;;;;;;;9.88;4.93;;;;;;;14.05;87.77;101827.25;4984285;28;20076;-72
2022/06/13 05:39:44;;;;;;;8.05;4.07;;;;;;;14.05;88.23;101835.06;5003631;28;20034;-72
2022/06/13 05:42:12;;;;;;;16.88;6.32;;;;;;;14.11;88.13;101834.47;5005163;28;20038;-72
2022/06/13 05:44:38;;;;;;;9.18;4.75;;;;;;;14.02;88.57;101838.00;4987230;28;20527;-73
2022/06/13 05:47:04;;;;;;;12.63;5.43;;;;;;;14.00;88.75;101842.56;5002228;28;20025;-72
2022/06/13 05:49:29;;;;;;;16.13;5.90;;;;;;;14.02;88.26;101856.25;5018434;28;20060;-72
2022/06/13 05:51:55;;;;;;;17.20;6.60;;;;;;;14.00;88.25;101847.78;4988585;28;20037;-73
2022/06/13 05:54:21;;;;;;;13.90;6.13;;;;;;;13.90;88.90;101844.44;4987601;28;20030;-73
2022/06/13 05:56:46;;;;;;;13.73;5.07;;;;;;;13.83;89.45;101846.84;4987179;28;20061;-73
2022/06/13 05:59:12;;;;;;;15.88;6.35;;;;;;;13.83;89.62;101852.06;5005482;28;20491;-73
2022/06/13 06:01:38;;;;;;;15.50;5.47;;;;;;;13.80;89.84;101849.75;5003832;28;20104;-73
2022/06/13 06:04:04;;;;;;;13.80;5.18;;;;;;;13.86;89.98;101845.72;5002232;28;20458;-73
2022/06/13 06:06:31;;;;;;;13.75;4.82;;;;;;;13.95;89.57;101845.63;4987880;28;20164;-73
2022/06/13 06:08:58;;;;;;;18.75;5.03;;;;;;;14.14;88.80;101849.81;4988952;28;20034;-72
2022/06/13 06:11:28;;;;;;;9.60;4.70;;;;;;;14.31;88.83;101853.31;5000298;28;20029;-72
2022/06/13 06:13:54;;;;;;;15.40;4.45;;;;;;;14.36;88.96;101848.47;5008378;28;20498;-72
2022/06/13 06:16:22;;;;;;;12.30;5.00;;;;;;;14.68;88.56;101856.66;5001091;28;20042;-72
2022/06/13 06:18:49;;;;;;;17.23;5.47;;;;;;;15.08;87.05;101862.97;5006557;28;20120;-73
2022/06/13 06:21:15;;;;;;;15.43;5.93;;;;;;;15.38;86.26;101853.69;5003039;28;20045;-72
2022/06/13 06:23:41;;;;;;;12.43;5.30;;;;;;;15.23;85.24;101858.75;5015849;28;20488;-72
2022/06/13 06:26:06;;;;;;;15.50;6.20;;;;;;;15.15;85.20;101853.50;5003963;28;20160;-72
2022/06/13 06:28:33;;;;;;;17.30;6.68;;;;;;;15.27;85.14;101862.66;5004867;28;20108;-72
2022/06/13 06:30:59;;;;;;;14.65;5.72;;;;;;;15.33;86.41;101864.66;5006996;28;20033;-72
2022/06/13 06:33:26;;;;;;;13.57;5.78;;;;;;;15.36;86.46;101863.50;5016626;28;20048;-72
2022/06/13 06:35:52;;;;;;;17.50;6.45;;;;;;;15.88;85.81;101862.38;5016064;28;20408;-72
2022/06/13 06:38:20;;;;;;;19.20;5.53;;;;;;;16.46;81.68;101858.69;5000873;28;20049;-71
2022/06/13 06:40:45;;;;;;;16.20;7.13;;;;;;;16.96;79.41;101855.84;4999542;28;20462;-72
2022/06/13 06:43:11;;;;;;;17.00;5.68;;;;;;;17.37;77.49;101859.03;5002250;28;20037;-72
2022/06/13 06:45:37;;;;;;;25.35;6.38;;;;;;;17.81;75.58;101860.13;4971543;28;20404;-72
2022/06/13 06:48:03;;;;;;;21.48;7.53;;;;;;;18.17;75.54;101859.50;4999138;28;20038;-72
2022/06/13 06:50:34;;;;;;;22.50;7.13;;;;;;;18.26;73.99;101864.47;4997911;28;20030;-71
2022/06/13 06:53:00;;;;;;;18.17;6.00;;;;;;;18.64;73.12;101863.53;5019414;28;20100;-71
2022/06/13 07:00:59;;;;;;;19.40;7.20;;;;;;;19.52;70.60;101863.47;4985257;28;20032;-71
2022/06/13 07:03:25;;;;;;;18.60;7.40;;;;;;;19.40;69.16;101858.72;4987564;28;20034;-71
2022/06/13 07:05:51;;;;;;;17.80;6.30;;;;;;;19.66;69.24;101867.81;5009087;28;20034;-72
2022/06/13 07:08:17;;;;;;;21.63;6.78;;;;;;;19.78;68.74;101866.31;4984845;28;20071;-71
2022/06/13 07:10:46;;;;;;;15.73;6.25;;;;;;;19.89;67.59;101867.63;5004150;28;20026;-71
2022/06/13 07:13:12;;;;;;;23.55;7.35;;;;;;;20.49;66.98;101867.94;4982508;28;20093;-71
2022/06/13 07:15:38;;;;;;;20.02;6.85;;;;;;;20.63;66.66;101860.94;4990270;28;20053;-72
2022/06/13 07:18:03;;;;;;;23.60;7.20;;;;;;;20.65;66.42;101861.56;5014261;28;20029;-71
2022/06/13 07:20:29;;;;;;;22.02;6.25;;;;;;;20.50;67.67;101866.94;4986492;28;20041;-72
2022/06/13 07:22:54;;;;;;;26.38;8.63;;;;;;;20.99;65.81;101865.09;5009447;28;20057;-72
2022/06/13 07:25:23;;;;;;;23.77;7.43;;;;;;;21.49;64.60;101862.16;5016796;28;20042;-72
2022/06/13 07:27:49;;;;;;;20.45;7.95;;;;;;;21.79;62.95;101867.81;4985152;28;20026;-71
2022/06/13 07:30:18;;;;;;;14.60;6.00;;;;;;;21.35;61.45;101866.59;4999209;28;20475;-71
2022/06/13 07:32:44;;;;;;;11.93;5.85;;;;;;;21.81;60.29;101871.06;5004259;28;20120;-72
2022/06/13 07:35:12;;;;;;;17.70;7.03;;;;;;;22.25;60.48;101866.13;5016928;28;23873;-71
2022/06/13 07:38:23;;;;;;;19.50;6.53;;;;;;;22.42;55.63;101859.38;4986772;28;20042;-72
2022/06/13 07:40:24;;;;;;;18.75;5.57;;;;;;;22.57;55.05;101869.69;4985851;28;20415;-71
2022/06/13 07:42:58;;;;;;;24.00;7.25;;;;;;;22.18;52.83;101879.31;4987620;28;20037;-71
2022/06/13 07:45:26;;;;;;;14.02;5.30;;;;;;;22.39;53.97;101872.19;4999197;28;21807;-71
2022/06/13 07:47:52;;;;;;;15.55;5.72;;;;;;;22.68;53.67;101878.78;4987937;28;20035;-71
2022/06/13 07:50:24;;;;;;;17.00;6.57;;;;;;;22.63;53.35;101878.59;5002906;28;20777;-71
2022/06/13 07:52:51;;;;;;;17.05;5.30;;;;;;;22.87;52.95;101887.63;5007506;28;20026;-71
2022/06/13 07:55:18;;;;;;;15.65;5.72;;;;;;;22.80;51.70;101892.13;4999428;28;20400;-72
2022/06/13 07:57:45;;;;;;;18.20;5.35;;;;;;;22.92;52.18;101883.34;5001227;28;20037;-71
2022/06/13 08:00:22;;;;;;;12.20;4.93;;;;;;;22.94;50.50;101891.88;4991346;28;20044;-71
2022/06/13 08:02:48;;;;;;;15.35;6.35;;;;;;;23.23;51.12;101891.50;5017860;28;20038;-71
2022/06/13 08:05:14;;;;;;;14.10;5.05;;;;;;;23.39;51.92;101890.97;4987668;28;20085;-71
2022/06/13 08:07:40;;;;;;;14.90;5.35;;;;;;;23.60;51.60;101900.41;5001607;28;20026;-71
2022/06/13 08:10:06;;;;;;;15.40;5.25;;;;;;;23.81;49.67;101895.75;4993722;28;20026;-71
2022/06/13 08:12:31;;;;;;;12.35;5.18;;;;;;;24.01;48.96;101895.56;4996589;28;20073;-72
2022/06/13 08:14:57;;;;;;;17.10;6.20;;;;;;;24.26;47.94;101900.78;5003113;28;20029;-71
2022/06/13 08:17:22;;;;;;;11.85;5.13;;;;;;;24.10;47.58;101907.50;4980987;28;20675;-71
2022/06/13 08:19:50;;;;;;;15.80;5.72;;;;;;;23.94;48.12;101908.06;5002625;28;20033;-71
2022/06/13 08:22:16;;;;;;;14.07;4.82;;;;;;;23.12;49.96;101911.53;4988394;28;20045;-71
2022/06/13 08:24:42;;;;;;;14.02;4.45;;;;;;;22.21;48.33;101912.44;4986290;28;20132;-70
2022/06/13 08:27:08;;;;;;;23.05;5.60;;;;;;;21.50;50.59;101914.72;5011770;28;20492;-71
2022/06/13 08:29:34;;;;;;;13.38;4.07;;;;;;;21.41;52.12;101912.44;4979244;28;20113;-71
2022/06/13 08:32:01;;;;;;;14.02;4.57;;;;;;;21.13;52.03;101916.84;4989239;28;20632;-72
2022/06/13 08:34:27;;;;;;;14.85;5.15;;;;;;;21.02;53.57;101919.25;4984332;28;20246;-71
2022/06/13 08:36:53;;;;;;;18.95;5.13;;;;;;;20.50;54.34;101935.44;5006709;28;20511;-72
2022/06/13 08:39:19;;;;;;;16.80;4.97;;;;;;;20.47;54.39;101930.53;4998387;28;20288;-71
2022/06/13 08:42:14;;;;;;;14.05;3.65;;;;;;;20.00;54.23;101926.81;5014324;28;20030;-71
2022/06/13 08:45:09;;;;;;;9.35;3.10;;;;;;;20.02;56.39;101930.06;4998899;28;20057;-71
2022/06/13 08:47:54;;;;;;;12.63;3.30;;;;;;;20.05;56.41;101931.50;5011270;28;20443;-71
2022/06/13 08:50:40;;;;;;;13.50;3.72;;;;;;;20.48;56.39;101942.72;4998263;28;20034;-71
2022/06/13 08:53:20;;;;;;;11.07;3.70;;;;;;;22.23;51.93;101924.44;4944773;28;20500;-70
2022/06/13 08:55:51;;;;;;;14.40;4.90;;;;;;;23.19;49.66;101925.53;5012827;28;20036;-71
2022/06/13 08:58:34;;;;;;;14.98;4.90;;;;;;;24.00;47.95;101929.19;4997724;28;20030;-71
2022/06/13 09:01:09;;;;;;;10.30;4.45;;;;;;;24.33;46.30;101928.03;5003236;28;20029;-71
2022/06/13 09:03:42;;;;;;;12.57;3.70;;;;;;;23.39;44.77;101920.06;4997332;28;20042;-71
2022/06/13 09:06:34;;;;;;;12.63;3.78;;;;;;;22.32;46.49;101927.66;5006858;28;20041;-71
2022/06/13 09:09:09;;;;;;;8.43;3.05;;;;;;;21.77;49.74;101935.84;4974387;28;20052;-71
2022/06/13 09:11:42;;;;;;;15.75;3.97;;;;;;;21.31;50.46;101941.84;4989431;28;20072;-70
2022/06/13 09:14:15;;;;;;;12.57;4.30;;;;;;;20.69;51.06;101939.22;5014292;28;20033;-71
2022/06/13 09:16:46;;;;;;;15.30;4.88;;;;;;;20.31;51.67;101952.75;4988921;28;20546;-71
2022/06/13 09:19:15;;;;;;;11.07;3.72;;;;;;;20.37;52.44;101959.88;5001304;28;20045;-71
2022/06/13 09:22:00;;;;;;;17.13;4.43;;;;;;;21.11;51.69;101947.88;5000599;28;20044;-71
2022/06/13 09:25:08;;;;;;;11.43;4.32;;;;;;;21.16;50.05;101963.13;4999602;28;20048;-71
2022/06/13 09:27:46;;;;;;;13.23;3.78;;;;;;;20.71;48.75;101952.19;4943988;28;20050;-71
2022/06/13 09:30:17;;;;;;;12.63;2.80;;;;;;;20.82;49.81;101964.00;4928786;28;20050;-71
2022/06/13 09:32:52;;;;;;;11.90;2.90;;;;;;;21.09;47.44;101962.28;4975384;28;20168;-71
2022/06/13 09:35:28;;;;;;;10.00;3.10;;;;;;;20.85;49.94;101958.31;4986376;28;20041;-70
2022/06/13 09:38:03;;;;;;;13.18;3.55;;;;;;;21.47;48.92;101967.06;5018539;28;20038;-71
2022/06/13 09:40:52;;;;;;;10.10;2.40;;;;;;;21.67;49.28;101964.47;5014947;28;20108;-71
2022/06/13 09:43:47;;;;;;;10.57;3.00;;;;;;;21.46;48.83;101966.25;5001584;28;20397;-71
2022/06/13 09:46:40;;;;;;;8.50;2.53;;;;;;;20.96;49.01;101965.66;4989364;28;20042;-71
2022/06/13 09:49:36;;;;;;;12.48;2.90;;;;;;;20.83;50.10;101970.88;4984620;28;20052;-71
2022/06/13 09:52:05;;;;;;;8.40;2.33;;;;;;;21.18;48.75;101977.72;5001289;28;20033;-70
2022/06/13 09:54:55;;;;;;;10.43;2.72;;;;;;;21.56;47.70;101973.78;5015681;28;20491;-71
2022/06/13 09:57:47;;;;;;;8.57;2.38;;;;;;;22.11;46.73;101969.16;4985027;28;20488;-71
2022/06/13 10:00:26;;;;;;;9.85;2.20;;;;;;;22.49;46.17;101959.75;4996262;28;20030;-71
2022/06/13 10:03:20;;;;;;;14.65;3.40;;;;;;;22.75;46.09;101956.19;5001046;28;20038;-71
2022/06/13 10:05:47;;;;;;;;;;;;;;;23.11;42.84;101955.69;4989563;28;20065;-71
2022/06/13 10:08:31;;;;;;;5.93;2.15;;;;;;;23.17;44.52;101950.53;5016806;28;19913;-71
2022/06/13 10:11:01;;;;;;;11.45;2.63;;;;;;;23.01;45.38;101952.63;5004108;28;20037;-71
2022/06/13 10:13:53;;;;;;;9.38;2.30;;;;;;;22.80;44.09;101955.59;4985953;28;20460;-70
2022/06/13 10:16:46;;;;;;;7.00;2.00;;;;;;;23.09;43.08;101964.84;4956553;28;20092;-71
2022/06/13 10:19:58;;;;;;;6.25;1.80;;;;;;;22.75;43.01;101969.41;5011958;28;20080;-71
2022/06/13 10:23:08;;;;;;;5.97;1.60;;;;;;;22.31;41.81;101971.78;4976122;28;20419;-71
2022/06/13 10:25:56;;;;;;;8.20;2.20;;;;;;;21.74;43.31;101984.56;4903360;29;20039;-71
2022/06/13 10:28:37;;;;;;;8.35;2.08;;;;;;;21.65;43.92;101980.50;4912491;29;20052;-71
2022/06/13 10:31:31;;;;;;;11.13;2.00;;;;;;;21.33;44.37;101982.03;4978525;28;20129;-70
2022/06/13 10:34:08;;;;;;;6.15;1.77;;;;;;;21.55;44.88;101985.38;4981922;28;20070;-71
2022/06/13 10:36:45;;;;;;;6.28;1.70;;;;;;;22.37;44.96;101980.72;5001036;28;20416;-71
2022/06/13 10:39:17;;;;;;;8.27;2.10;;;;;;;22.61;43.32;101973.16;5011613;28;20784;-71
2022/06/13 10:41:45;;;;;;;7.82;2.65;;;;;;;22.81;44.39;101968.59;5002177;28;20052;-71
2022/06/13 10:44:14;;;;;;;7.65;1.70;;;;;;;22.70;42.73;101975.34;4999134;28;20042;-71
2022/06/13 10:46:46;;;;;;;4.88;1.35;;;;;;;22.89;43.07;101963.06;4998393;28;20034;-71
2022/06/13 10:49:24;;;;;;;8.23;2.03;;;;;;;22.94;42.25;101968.53;5012744;28;20499;-71
2022/06/13 10:51:55;;;;;;;4.93;1.55;;;;;;;23.15;42.50;101961.38;5015431;28;20033;-70
2022/06/13 10:54:32;;;;;;;6.18;1.98;;;;;;;23.51;42.94;101962.56;4981830;28;20049;-70
2022/06/13 10:57:06;;;;;;;5.25;1.70;;;;;;;23.53;40.59;101965.81;4985189;28;20464;-71
2022/06/13 10:59:36;;;;;;;5.40;1.20;;;;;;;23.49;42.10;101968.06;4985440;28;20451;-71
2022/06/13 11:02:16;;;;;;;7.78;2.10;;;;;;;23.80;40.32;101970.94;5000384;28;20034;-71
2022/06/13 11:04:42;;;;;;;8.50;1.33;;;;;;;23.87;39.54;101953.94;4996195;28;20046;-71
2022/06/13 11:07:10;;;;;;;7.05;1.85;;;;;;;23.54;40.82;101956.81;5001123;28;20061;-71
2022/06/13 11:09:41;;;;;;;3.70;1.23;;;;;;;23.85;37.86;101961.31;5001975;28;20046;-71
2022/06/13 11:12:38;;;;;;;4.10;1.20;;;;;;;23.88;39.90;101968.00;5013604;28;20457;-71
2022/06/13 11:24:11;;;;;;;5.93;1.45;;;;;;;22.13;42.12;101990.88;5015006;28;20439;-70
2022/06/13 11:29:31;;;;;;;3.92;1.20;;;;;;;21.73;43.63;102005.88;5002710;28;20072;-70
2022/06/13 11:31:59;;;;;;;6.55;1.42;;;;;;;21.68;44.21;101990.66;4989999;28;20041;-71
2022/06/13 11:34:33;;;;;;;2.90;1.60;;;;;;;21.69;43.89;101991.47;4986528;28;20038;-71
2022/06/13 11:37:02;;;;;;;4.68;1.00;;;;;;;21.71;43.94;101989.44;4999391;28;20033;-71
2022/06/13 11:39:37;;;;;;;5.38;1.10;;;;;;;22.06;42.23;101989.25;4985700;28;20164;-71
2022/06/13 11:42:03;;;;;;;5.93;2.40;;;;;;;;;;5002158;28;20068;-71
2022/06/13 11:44:30;;;;;;;7.70;1.25;;;;;;;22.31;42.85;101979.69;4985884;28;20038;-71
2022/06/13 11:47:02;;;;;;;6.35;1.63;;;;;;;22.57;42.16;101977.22;4989533;28;20087;-70
2022/06/13 11:49:39;;;;;;;6.68;1.27;;;;;;;22.88;41.43;101968.56;5002178;28;20484;-70
2022/06/13 11:52:11;;;;;;;12.15;4.90;;;;;;;23.01;40.31;101978.28;4999487;28;20043;-71
2022/06/13 11:54:51;;;;;;;3.47;1.30;;;;;;;22.94;40.78;101976.47;4997961;28;20038;-71
2022/06/13 11:57:38;;;;;;;4.65;1.40;;;;;;;22.56;39.90;101976.41;5013825;28;20388;-71
2022/06/13 12:00:22;;;;;;;6.53;1.08;;;;;;;22.87;41.05;101980.97;4987593;28;20100;-71
2022/06/13 12:02:47;;;;;;;1.83;0.95;;;;;;;23.00;37.95;101974.81;5009688;28;20056;-71
2022/06/13 12:05:22;;;;;;;3.75;1.15;;;;;;;22.88;39.21;101973.84;4984236;28;20034;-70
2022/06/13 12:07:59;;;;;;;7.93;1.27;;;;;;;22.84;40.04;101970.81;4980877;28;20047;-71
2022/06/13 12:10:35;;;;;;;5.88;1.48;;;;;;;22.45;40.72;101977.88;4967054;28;20765;-71
2022/06/13 12:13:01;;;;;;;5.90;1.83;;;;;;;22.14;41.73;101978.47;4997254;28;20121;-71